sensor_id;sensor_type;location;lat;lon;timestamp;pressure;altitude;pressure_sealevel;temperature;humidity
56825;BME280;42705;50.326;18.772;2022-08-25T00:03:46;98769.84;;;21.10;67.54
56825;BME280;42705;50.326;18.772;2022-08-25T00:09:08;98779.88;;;21.08;67.57
56825;BME280;42705;50.326;18.772;2022-08-25T00:14:33;98770.66;;;21.04;67.81
56825;BME280;42705;50.326;18.772;2022-08-25T00:19:56;98766.10;;;20.98;67.88
56825;BME280;42705;50.326;18.772;2022-08-25T00:25:17;98774.89;;;20.92;68.04
56825;BME280;42705;50.326;18.772;2022-08-25T00:30:38;98764.46;;;20.97;68.30
56825;BME280;42705;50.326;18.772;2022-08-25T00:35:59;98762.23;;;21.01;68.42
56825;BME280;42705;50.326;18.772;2022-08-25T00:41:22;98765.11;;;21.06;68.39
56825;BME280;42705;50.326;18.772;2022-08-25T00:46:50;98753.86;;;21.10;68.40
56825;BME280;42705;50.326;18.772;2022-08-25T00:52:15;98753.45;;;21.14;68.46
56825;BME280;42705;50.326;18.772;2022-08-25T00:57:46;98756.83;;;21.18;68.45
56825;BME280;42705;50.326;18.772;2022-08-25T01:03:18;98761.86;;;21.10;68.47
56825;BME280;42705;50.326;18.772;2022-08-25T01:08:40;98754.64;;;20.98;68.37
56825;BME280;42705;50.326;18.772;2022-08-25T01:14:03;98753.53;;;20.78;68.44
56825;BME280;42705;50.326;18.772;2022-08-25T01:19:27;98753.19;;;20.71;69.12
56825;BME280;42705;50.326;18.772;2022-08-25T01:24:53;98749.94;;;20.75;69.22
56825;BME280;42705;50.326;18.772;2022-08-25T01:30:18;98738.51;;;20.64;69.16
56825;BME280;42705;50.326;18.772;2022-08-25T01:35:39;98737.03;;;20.48;69.36
56825;BME280;42705;50.326;18.772;2022-08-25T01:41:00;98732.56;;;20.37;69.59
56825;BME280;42705;50.326;18.772;2022-08-25T01:46:21;98721.20;;;20.33;69.92
56825;BME280;42705;50.326;18.772;2022-08-25T01:51:50;98719.88;;;20.39;70.40
56825;BME280;42705;50.326;18.772;2022-08-25T01:57:14;98722.84;;;20.58;70.54
56825;BME280;42705;50.326;18.772;2022-08-25T02:02:35;98717.87;;;20.66;70.42
56825;BME280;42705;50.326;18.772;2022-08-25T02:07:56;98714.28;;;20.70;70.38
56825;BME280;42705;50.326;18.772;2022-08-25T02:13:17;98725.23;;;20.71;70.58
56825;BME280;42705;50.326;18.772;2022-08-25T02:18:40;98725.23;;;20.71;70.58
56825;BME280;42705;50.326;18.772;2022-08-25T02:24:02;98728.18;;;20.82;70.54
56825;BME280;42705;50.326;18.772;2022-08-25T02:29:23;98717.96;;;20.86;70.43
56825;BME280;42705;50.326;18.772;2022-08-25T02:34:44;98705.67;;;20.92;70.34
56825;BME280;42705;50.326;18.772;2022-08-25T02:40:06;98714.17;;;20.98;70.27
56825;BME280;42705;50.326;18.772;2022-08-25T02:45:28;98709.26;;;20.95;70.14
56825;BME280;42705;50.326;18.772;2022-08-25T02:50:50;98710.89;;;20.96;70.16
56825;BME280;42705;50.326;18.772;2022-08-25T02:56:13;98703.84;;;20.99;70.20
56825;BME280;42705;50.326;18.772;2022-08-25T03:01:35;98706.09;;;20.95;70.05
56825;BME280;42705;50.326;18.772;2022-08-25T03:06:56;98705.57;;;20.96;70.12
56825;BME280;42705;50.326;18.772;2022-08-25T03:12:19;98704.67;;;21.00;70.15
56825;BME280;42705;50.326;18.772;2022-08-25T03:17:43;98697.48;;;21.00;70.13
56825;BME280;42705;50.326;18.772;2022-08-25T03:23:05;98688.48;;;21.01;70.02
56825;BME280;42705;50.326;18.772;2022-08-25T03:28:26;98688.09;;;21.04;70.04
56825;BME280;42705;50.326;18.772;2022-08-25T03:33:47;98684.10;;;21.04;69.90
56825;BME280;42705;50.326;18.772;2022-08-25T03:39:10;98689.13;;;21.03;69.87
56825;BME280;42705;50.326;18.772;2022-08-25T03:44:32;98692.59;;;21.04;69.86
56825;BME280;42705;50.326;18.772;2022-08-25T03:49:53;98696.68;;;21.00;69.84
56825;BME280;42705;50.326;18.772;2022-08-25T03:55:13;98694.20;;;20.98;69.84
56825;BME280;42705;50.326;18.772;2022-08-25T04:00:34;98698.20;;;20.98;69.89
56825;BME280;42705;50.326;18.772;2022-08-25T04:06:01;98693.38;;;20.91;69.83
56825;BME280;42705;50.326;18.772;2022-08-25T04:11:25;98705.61;;;20.78;69.69
56825;BME280;42705;50.326;18.772;2022-08-25T04:16:46;98708.37;;;20.74;70.04
56825;BME280;42705;50.326;18.772;2022-08-25T04:22:07;98709.63;;;20.61;69.92
56825;BME280;42705;50.326;18.772;2022-08-25T04:27:28;98711.14;;;20.52;70.29
56825;BME280;42705;50.326;18.772;2022-08-25T04:32:49;98710.80;;;20.45;70.39
56825;BME280;42705;50.326;18.772;2022-08-25T04:38:10;98706.66;;;20.29;70.47
56825;BME280;42705;50.326;18.772;2022-08-25T04:43:31;98706.16;;;20.12;70.56
56825;BME280;42705;50.326;18.772;2022-08-25T04:48:54;98710.57;;;19.98;70.79
56825;BME280;42705;50.326;18.772;2022-08-25T04:54:17;98701.03;;;19.92;71.39
56825;BME280;42705;50.326;18.772;2022-08-25T04:59:41;98701.27;;;19.98;71.59
56825;BME280;42705;50.326;18.772;2022-08-25T05:05:02;98700.66;;;20.02;71.81
56825;BME280;42705;50.326;18.772;2022-08-25T05:10:24;98702.22;;;20.07;72.01
56825;BME280;42705;50.326;18.772;2022-08-25T05:15:57;98702.22;;;20.07;72.01
56825;BME280;42705;50.326;18.772;2022-08-25T05:21:20;98708.81;;;20.12;71.90
56825;BME280;42705;50.326;18.772;2022-08-25T05:26:42;98705.23;;;20.15;72.01
56825;BME280;42705;50.326;18.772;2022-08-25T05:32:04;98704.89;;;20.25;72.13
56825;BME280;42705;50.326;18.772;2022-08-25T05:37:25;98700.55;;;20.35;72.03
56825;BME280;42705;50.326;18.772;2022-08-25T05:42:46;98694.34;;;20.45;72.13
56825;BME280;42705;50.326;18.772;2022-08-25T05:48:07;98699.08;;;20.57;72.27
56825;BME280;42705;50.326;18.772;2022-08-25T05:53:29;98699.73;;;20.65;72.29
56825;BME280;42705;50.326;18.772;2022-08-25T05:58:50;98694.53;;;20.75;72.43
56825;BME280;42705;50.326;18.772;2022-08-25T06:04:13;98694.19;;;20.85;72.23
56825;BME280;42705;50.326;18.772;2022-08-25T06:09:39;98693.38;;;20.91;72.18
56825;BME280;42705;50.326;18.772;2022-08-25T06:15:01;98690.33;;;21.01;72.20
56825;BME280;42705;50.326;18.772;2022-08-25T06:20:25;98689.83;;;21.08;71.93
56825;BME280;42705;50.326;18.772;2022-08-25T06:25:49;98683.10;;;21.25;72.02
56825;BME280;42705;50.326;18.772;2022-08-25T06:31:11;98682.69;;;21.29;71.75
56825;BME280;42705;50.326;18.772;2022-08-25T06:36:32;98686.27;;;21.45;71.86
56825;BME280;42705;50.326;18.772;2022-08-25T06:41:55;98694.97;;;21.63;71.84
56825;BME280;42705;50.326;18.772;2022-08-25T06:47:18;98686.37;;;21.75;71.76
56825;BME280;42705;50.326;18.772;2022-08-25T06:52:39;98689.95;;;21.85;71.42
56825;BME280;42705;50.326;18.772;2022-08-25T06:58:01;98686.02;;;22.01;71.55
56825;BME280;42705;50.326;18.772;2022-08-25T07:03:23;98686.50;;;22.20;71.52
56825;BME280;42705;50.326;18.772;2022-08-25T07:08:44;98688.98;;;22.38;71.24
56825;BME280;42705;50.326;18.772;2022-08-25T07:14:08;98683.61;;;22.51;70.89
56825;BME280;42705;50.326;18.772;2022-08-25T07:19:31;98691.75;;;22.70;70.98
56825;BME280;42705;50.326;18.772;2022-08-25T07:24:51;98689.57;;;22.92;70.81
56825;BME280;42705;50.326;18.772;2022-08-25T07:30:12;98685.66;;;23.11;70.28
56825;BME280;42705;50.326;18.772;2022-08-25T07:35:34;98685.16;;;23.27;70.13
56825;BME280;42705;50.326;18.772;2022-08-25T07:41:01;98686.47;;;23.44;69.92
56825;BME280;42705;50.326;18.772;2022-08-25T07:46:23;98689.02;;;23.57;69.42
56825;BME280;42705;50.326;18.772;2022-08-25T07:51:44;98688.08;;;23.70;69.34
56825;BME280;42705;50.326;18.772;2022-08-25T07:57:07;98682.53;;;23.81;69.18
56825;BME280;42705;50.326;18.772;2022-08-25T08:02:29;98686.99;;;23.87;68.75
56825;BME280;42705;50.326;18.772;2022-08-25T08:07:51;98676.89;;;23.89;68.19
56825;BME280;42705;50.326;18.772;2022-08-25T08:13:13;98677.42;;;23.98;68.35
56825;BME280;42705;50.326;18.772;2022-08-25T08:18:34;98669.66;;;24.06;68.29
56825;BME280;42705;50.326;18.772;2022-08-25T08:23:56;98671.14;;;24.11;68.27
56825;BME280;42705;50.326;18.772;2022-08-25T08:29:18;98668.31;;;24.15;67.80
56825;BME280;42705;50.326;18.772;2022-08-25T08:34:40;98669.34;;;24.23;67.86
56825;BME280;42705;50.326;18.772;2022-08-25T08:40:03;98670.31;;;24.29;67.59
56825;BME280;42705;50.326;18.772;2022-08-25T08:45:37;98673.29;;;24.30;67.26
56825;BME280;42705;50.326;18.772;2022-08-25T08:51:21;98673.13;;;24.34;67.26
56825;BME280;42705;50.326;18.772;2022-08-25T08:56:49;98667.84;;;24.46;67.32
56825;BME280;42705;50.326;18.772;2022-08-25T09:02:21;98668.70;;;24.59;67.17
56825;BME280;42705;50.326;18.772;2022-08-25T09:08:00;98664.15;;;24.68;67.00
56825;BME280;42705;50.326;18.772;2022-08-25T09:13:29;98672.09;;;24.75;66.82
56825;BME280;42705;50.326;18.772;2022-08-25T09:30:31;98662.93;;;25.04;66.28
56825;BME280;42705;50.326;18.772;2022-08-25T09:35:54;98659.91;;;25.12;66.19
56825;BME280;42705;50.326;18.772;2022-08-25T09:41:17;98656.50;;;25.26;66.05
56825;BME280;42705;50.326;18.772;2022-08-25T09:47:00;98652.90;;;25.44;65.67
56825;BME280;42705;50.326;18.772;2022-08-25T09:52:39;98651.59;;;25.56;65.47
56825;BME280;42705;50.326;18.772;2022-08-25T09:58:12;98642.50;;;25.69;65.43
56825;BME280;42705;50.326;18.772;2022-08-25T10:03:35;98636.59;;;25.82;65.11
56825;BME280;42705;50.326;18.772;2022-08-25T10:09:06;98629.45;;;25.99;64.95
56825;BME280;42705;50.326;18.772;2022-08-25T10:20:15;98624.85;;;26.38;64.22
56825;BME280;42705;50.326;18.772;2022-08-25T10:25:45;98618.95;;;26.53;63.61
56825;BME280;42705;50.326;18.772;2022-08-25T10:31:24;98616.93;;;26.61;63.25
56825;BME280;42705;50.326;18.772;2022-08-25T10:37:08;98608.53;;;26.71;62.92
56825;BME280;42705;50.326;18.772;2022-08-25T10:54:07;98599.69;;;27.05;61.56
56825;BME280;42705;50.326;18.772;2022-08-25T11:05:31;98599.12;;;27.20;61.34
56825;BME280;42705;50.326;18.772;2022-08-25T11:11:02;98589.45;;;27.39;61.43
56825;BME280;42705;50.326;18.772;2022-08-25T11:16:54;98589.47;;;27.58;61.30
56825;BME280;42705;50.326;18.772;2022-08-25T11:22:45;98582.75;;;27.81;60.76
56825;BME280;42705;50.326;18.772;2022-08-25T11:28:42;98566.25;;;27.97;60.20
56825;BME280;42705;50.326;18.772;2022-08-25T11:34:16;98564.62;;;28.18;59.95
56825;BME280;42705;50.326;18.772;2022-08-25T11:45:53;98543.50;;;28.62;58.44
56825;BME280;42705;50.326;18.772;2022-08-25T11:51:42;98545.92;;;28.91;57.95
56825;BME280;42705;50.326;18.772;2022-08-25T11:57:09;98537.41;;;29.10;57.25
56825;BME280;42705;50.326;18.772;2022-08-25T12:08:06;98521.98;;;29.40;56.72
56825;BME280;42705;50.326;18.772;2022-08-25T12:13:48;98514.50;;;29.55;56.16
56825;BME280;42705;50.326;18.772;2022-08-25T12:25:07;98508.72;;;30.05;54.70
56825;BME280;42705;50.326;18.772;2022-08-25T12:30:49;98515.50;;;30.28;53.69
56825;BME280;42705;50.326;18.772;2022-08-25T12:36:29;98506.60;;;30.43;52.61
56825;BME280;42705;50.326;18.772;2022-08-25T12:42:04;98507.42;;;30.59;51.84
56825;BME280;42705;50.326;18.772;2022-08-25T12:47:29;98503.09;;;30.79;51.24
56825;BME280;42705;50.326;18.772;2022-08-25T12:52:54;98499.80;;;31.00;50.54
56825;BME280;42705;50.326;18.772;2022-08-25T12:58:19;98492.44;;;31.37;50.48
56825;BME280;42705;50.326;18.772;2022-08-25T13:21:23;98479.45;;;39.54;38.19
56825;BME280;42705;50.326;18.772;2022-08-25T13:26:53;98472.93;;;41.80;35.28
56825;BME280;42705;50.326;18.772;2022-08-25T13:32:24;98463.95;;;42.94;32.42
56825;BME280;42705;50.326;18.772;2022-08-25T13:37:48;98458.48;;;43.86;31.05
56825;BME280;42705;50.326;18.772;2022-08-25T13:43:12;98461.45;;;45.53;29.44
56825;BME280;42705;50.326;18.772;2022-08-25T13:48:39;98461.41;;;46.56;27.54
56825;BME280;42705;50.326;18.772;2022-08-25T13:54:04;98454.25;;;47.04;25.88
56825;BME280;42705;50.326;18.772;2022-08-25T13:59:31;98451.20;;;47.23;25.77
56825;BME280;42705;50.326;18.772;2022-08-25T14:04:54;98448.41;;;48.16;25.11
56825;BME280;42705;50.326;18.772;2022-08-25T14:10:38;98447.05;;;48.70;23.94
56825;BME280;42705;50.326;18.772;2022-08-25T14:16:14;98433.97;;;48.60;23.33
56825;BME280;42705;50.326;18.772;2022-08-25T14:21:39;98428.94;;;49.17;22.82
56825;BME280;42705;50.326;18.772;2022-08-25T14:27:01;98427.81;;;48.78;22.28
56825;BME280;42705;50.326;18.772;2022-08-25T14:32:22;98425.77;;;49.15;21.74
56825;BME280;42705;50.326;18.772;2022-08-25T14:37:44;98418.87;;;48.82;21.21
56825;BME280;42705;50.326;18.772;2022-08-25T14:43:06;98409.16;;;48.57;21.18
56825;BME280;42705;50.326;18.772;2022-08-25T14:48:30;98408.57;;;48.68;21.32
56825;BME280;42705;50.326;18.772;2022-08-25T14:53:56;98402.55;;;47.90;21.20
56825;BME280;42705;50.326;18.772;2022-08-25T14:59:19;98390.05;;;47.79;21.08
56825;BME280;42705;50.326;18.772;2022-08-25T15:04:40;98383.09;;;47.22;20.75
56825;BME280;42705;50.326;18.772;2022-08-25T15:10:01;98389.57;;;47.09;20.82
56825;BME280;42705;50.326;18.772;2022-08-25T15:15:22;98385.22;;;46.49;20.82
56825;BME280;42705;50.326;18.772;2022-08-25T15:20:45;98387.02;;;46.30;21.22
56825;BME280;42705;50.326;18.772;2022-08-25T15:26:08;98385.52;;;46.16;21.36
56825;BME280;42705;50.326;18.772;2022-08-25T15:31:31;98384.95;;;45.65;21.35
56825;BME280;42705;50.326;18.772;2022-08-25T15:36:52;98381.56;;;44.87;21.56
56825;BME280;42705;50.326;18.772;2022-08-25T15:42:14;98393.33;;;44.20;21.98
56825;BME280;42705;50.326;18.772;2022-08-25T15:47:36;98381.91;;;43.99;22.13
56825;BME280;42705;50.326;18.772;2022-08-25T15:52:57;98384.55;;;43.81;22.60
56825;BME280;42705;50.326;18.772;2022-08-25T15:58:18;98373.14;;;43.34;22.73
56825;BME280;42705;50.326;18.772;2022-08-25T16:03:39;98371.20;;;42.73;23.20
56825;BME280;42705;50.326;18.772;2022-08-25T16:09:00;98369.70;;;42.11;23.56
56825;BME280;42705;50.326;18.772;2022-08-25T16:14:21;98367.36;;;41.34;24.32
56825;BME280;42705;50.326;18.772;2022-08-25T16:19:42;98369.71;;;40.94;24.80
56825;BME280;42705;50.326;18.772;2022-08-25T16:25:04;98372.55;;;40.36;25.37
56825;BME280;42705;50.326;18.772;2022-08-25T16:30:25;98371.34;;;39.78;25.96
56825;BME280;42705;50.326;18.772;2022-08-25T16:35:46;98377.28;;;39.32;26.53
56825;BME280;42705;50.326;18.772;2022-08-25T16:41:09;98377.87;;;38.71;27.12
56825;BME280;42705;50.326;18.772;2022-08-25T16:46:32;98379.03;;;38.14;27.74
56825;BME280;42705;50.326;18.772;2022-08-25T16:51:54;98373.77;;;37.56;28.42
56825;BME280;42705;50.326;18.772;2022-08-25T16:57:14;98374.98;;;36.85;28.93
56825;BME280;42705;50.326;18.772;2022-08-25T17:02:38;98371.06;;;36.17;29.75
56825;BME280;42705;50.326;18.772;2022-08-25T17:07:59;98370.80;;;35.47;30.65
